createdAt,value
2018-12-18T00:00:25.256Z,1018.32
2018-12-18T00:01:25.282Z,1018.30
2018-12-18T00:02:25.209Z,1018.34
2018-12-18T00:03:25.187Z,1018.30
2018-12-18T00:04:25.161Z,1018.27
2018-12-18T00:05:25.142Z,1018.30
2018-12-18T00:06:25.124Z,1018.28
2018-12-18T00:07:25.098Z,1018.29
2018-12-18T00:08:25.069Z,1018.30
2018-12-18T00:09:25.050Z,1018.26
2018-12-18T00:10:25.022Z,1018.24
2018-12-18T00:11:25.000Z,1018.27
2018-12-18T00:12:24.990Z,1018.25
2018-12-18T00:13:24.961Z,1018.28
2018-12-18T00:14:24.938Z,1018.24
2018-12-18T00:15:24.916Z,1018.28
2018-12-18T00:16:24.893Z,1018.30
2018-12-18T00:17:24.858Z,1018.25
2018-12-18T00:18:24.836Z,1018.22
2018-12-18T00:19:24.823Z,1018.23
2018-12-18T00:20:24.797Z,1018.23
2018-12-18T00:21:24.766Z,1018.21
2018-12-18T00:22:24.746Z,1018.23
2018-12-18T00:23:24.742Z,1018.22
2018-12-18T00:24:24.694Z,1018.24
2018-12-18T00:25:24.689Z,1018.17
2018-12-18T00:26:24.656Z,1018.21
2018-12-18T00:27:24.633Z,1018.25
2018-12-18T00:28:24.604Z,1018.22
2018-12-18T00:29:24.591Z,1018.24
2018-12-18T00:30:24.557Z,1018.24
2018-12-18T00:31:24.533Z,1018.25
2018-12-18T00:32:24.516Z,1018.24
2018-12-18T00:33:24.496Z,1018.27
2018-12-18T00:34:24.475Z,1018.30
2018-12-18T00:35:24.443Z,1018.25
2018-12-18T00:36:24.422Z,1018.28
2018-12-18T00:37:24.394Z,1018.31
2018-12-18T00:38:24.376Z,1018.28
2018-12-18T00:39:24.350Z,1018.29
2018-12-18T00:40:24.327Z,1018.29
2018-12-18T00:41:24.299Z,1018.29
2018-12-18T00:42:24.284Z,1018.32
2018-12-18T00:43:24.261Z,1018.31
2018-12-18T00:44:24.229Z,1018.33
2018-12-18T00:45:24.215Z,1018.35
2018-12-18T00:46:24.194Z,1018.34
2018-12-18T00:47:24.163Z,1018.37
2018-12-18T00:48:24.137Z,1018.37
2018-12-18T00:49:24.116Z,1018.40
2018-12-18T00:50:24.092Z,1018.39
2018-12-18T00:51:24.077Z,1018.42
2018-12-18T00:52:24.053Z,1018.39
2018-12-18T00:53:24.020Z,1018.40
2018-12-18T00:54:23.998Z,1018.37
2018-12-18T00:55:23.978Z,1018.37
2018-12-18T00:56:23.951Z,1018.36
2018-12-18T00:57:23.931Z,1018.36
2018-12-18T00:58:23.906Z,1018.36
2018-12-18T00:59:23.885Z,1018.32
2018-12-18T01:00:23.868Z,1018.36
2018-12-18T01:01:23.845Z,1018.35
2018-12-18T01:02:23.951Z,1018.31
2018-12-18T01:03:23.793Z,1018.28
2018-12-18T01:04:23.767Z,1018.30
2018-12-18T01:05:23.744Z,1018.31
2018-12-18T01:06:23.726Z,1018.30
2018-12-18T01:07:23.716Z,1018.30
2018-12-18T01:08:23.679Z,1018.30
2018-12-18T01:09:23.655Z,1018.26
2018-12-18T01:10:23.629Z,1018.30
2018-12-18T01:11:23.611Z,1018.29
2018-12-18T01:12:23.596Z,1018.33
2018-12-18T01:13:23.564Z,1018.26
2018-12-18T01:14:23.538Z,1018.29
2018-12-18T01:15:23.514Z,1018.34
2018-12-18T01:16:23.490Z,1018.32
2018-12-18T01:17:23.472Z,1018.31
2018-12-18T01:18:23.444Z,1018.32
2018-12-18T01:19:23.423Z,1018.35
2018-12-18T01:20:23.396Z,1018.38
2018-12-18T01:21:23.373Z,1018.36
2018-12-18T01:22:23.349Z,1018.32
2018-12-18T01:23:23.329Z,1018.38
2018-12-18T01:24:23.304Z,1018.34
2018-12-18T01:25:23.282Z,1018.40
2018-12-18T01:26:23.257Z,1018.38
2018-12-18T01:27:23.246Z,1018.33
2018-12-18T01:28:23.211Z,1018.31
2018-12-18T01:29:23.189Z,1018.32
2018-12-18T01:30:23.164Z,1018.31
2018-12-18T01:31:23.150Z,1018.33
2018-12-18T01:32:23.122Z,1018.30
2018-12-18T01:33:23.095Z,1018.29
2018-12-18T01:34:23.072Z,1018.30
2018-12-18T01:35:23.049Z,1018.35
2018-12-18T01:36:23.026Z,1018.31
2018-12-18T01:37:23.002Z,1018.29
2018-12-18T01:38:22.979Z,1018.33
2018-12-18T01:39:22.962Z,1018.34
2018-12-18T01:40:22.932Z,1018.34
2018-12-18T01:41:22.918Z,1018.34
2018-12-18T01:42:22.888Z,1018.34
2018-12-18T01:43:22.879Z,1018.31
2018-12-18T01:44:22.840Z,1018.35
2018-12-18T01:45:22.817Z,1018.37
2018-12-18T01:46:22.795Z,1018.35
2018-12-18T01:47:22.771Z,1018.36
2018-12-18T01:48:22.746Z,1018.35
2018-12-18T01:49:22.723Z,1018.36
2018-12-18T01:50:22.700Z,1018.35
2018-12-18T01:51:22.678Z,1018.34
2018-12-18T01:52:22.662Z,1018.33
2018-12-18T01:53:22.633Z,1018.34
2018-12-18T01:54:22.608Z,1018.35
2018-12-18T01:55:22.586Z,1018.28
2018-12-18T01:56:22.562Z,1018.29
2018-12-18T01:57:22.547Z,1018.32
2018-12-18T01:58:22.515Z,1018.34
2018-12-18T01:59:22.502Z,1018.35
2018-12-18T02:00:22.467Z,1018.32
2018-12-18T02:01:22.446Z,1018.33
2018-12-18T02:02:22.422Z,1018.39
2018-12-18T02:03:22.402Z,1018.38
2018-12-18T02:04:22.375Z,1018.39
2018-12-18T02:05:22.360Z,1018.38
2018-12-18T02:06:22.335Z,1018.41
2018-12-18T02:07:22.306Z,1018.38
2018-12-18T02:08:22.283Z,1018.37
2018-12-18T02:09:22.259Z,1018.37
2018-12-18T02:10:22.239Z,1018.39
2018-12-18T02:11:22.215Z,1018.35
2018-12-18T02:12:22.188Z,1018.35
2018-12-18T02:13:22.174Z,1018.35
2018-12-18T02:14:22.153Z,1018.33
2018-12-18T02:15:22.121Z,1018.31
2018-12-18T02:16:22.097Z,1018.32
2018-12-18T02:17:22.073Z,1018.30
2018-12-18T02:18:22.051Z,1018.30
2018-12-18T02:19:22.029Z,1018.25
2018-12-18T02:20:22.004Z,1018.28
2018-12-18T02:21:21.980Z,1018.26
2018-12-18T02:22:21.957Z,1018.22
2018-12-18T02:23:21.933Z,1018.19
2018-12-18T02:24:21.910Z,1018.17
2018-12-18T02:25:21.888Z,1018.13
2018-12-18T02:26:21.863Z,1018.08
2018-12-18T02:27:21.841Z,1018.09
2018-12-18T02:28:21.825Z,1018.05
2018-12-18T02:29:21.796Z,1018.06
2018-12-18T02:30:21.771Z,1018.09
2018-12-18T02:31:21.748Z,1018.09
2018-12-18T02:32:21.724Z,1018.16
2018-12-18T02:33:21.763Z,1018.19
2018-12-18T02:34:21.678Z,1018.19
2018-12-18T02:35:21.655Z,1018.25
2018-12-18T02:36:21.630Z,1018.32
2018-12-18T02:37:21.608Z,1018.27
2018-12-18T02:38:21.585Z,1018.27
2018-12-18T02:39:21.563Z,1018.27
2018-12-18T02:40:21.538Z,1018.33
2018-12-18T02:41:21.515Z,1018.30
2018-12-18T02:42:21.496Z,1018.28
2018-12-18T02:43:21.468Z,1018.27
2018-12-18T02:44:21.445Z,1018.31
2018-12-18T02:45:21.423Z,1018.28
2018-12-18T02:46:21.397Z,1018.26
2018-12-18T02:47:21.376Z,1018.24
2018-12-18T02:48:21.357Z,1018.29
2018-12-18T02:49:21.332Z,1018.22
2018-12-18T02:50:21.323Z,1018.22
2018-12-18T02:51:21.288Z,1018.20
2018-12-18T02:52:21.260Z,1018.19
2018-12-18T02:53:21.241Z,1018.21
2018-12-18T02:54:21.221Z,1018.23
2018-12-18T02:55:21.188Z,1018.22
2018-12-18T02:56:21.164Z,1018.20
2018-12-18T02:57:21.149Z,1018.24
2018-12-18T02:58:21.125Z,1018.24
2018-12-18T02:59:21.108Z,1018.22
2018-12-18T03:00:21.075Z,1018.22
2018-12-18T03:01:21.051Z,1018.21
2018-12-18T03:02:21.026Z,1018.22
2018-12-18T03:03:21.015Z,1018.22
2018-12-18T03:04:21.911Z,1018.22
2018-12-18T03:05:20.964Z,1018.21
2018-12-18T03:06:20.945Z,1018.19
2018-12-18T03:07:20.908Z,1018.21
2018-12-18T03:08:20.884Z,1018.27
2018-12-18T03:09:20.860Z,1018.26
2018-12-18T03:10:20.838Z,1018.26
2018-12-18T03:11:20.818Z,1018.29
2018-12-18T03:12:20.790Z,1018.31
2018-12-18T03:13:20.769Z,1018.29
2018-12-18T03:14:20.752Z,1018.28
2018-12-18T03:15:20.733Z,1018.31
2018-12-18T03:16:20.696Z,1018.30
2018-12-18T03:17:20.675Z,1018.31
2018-12-18T03:18:20.655Z,1018.33
2018-12-18T03:19:20.627Z,1018.33
2018-12-18T03:20:20.604Z,1018.38
2018-12-18T03:21:20.585Z,1018.33
2018-12-18T03:22:20.557Z,1018.32
2018-12-18T03:23:20.533Z,1018.32
2018-12-18T03:24:20.511Z,1018.28
2018-12-18T03:25:20.487Z,1018.28
2018-12-18T03:26:20.464Z,1018.21
2018-12-18T03:27:20.454Z,1018.23
2018-12-18T03:28:20.418Z,1018.21
2018-12-18T03:29:20.392Z,1018.28
2018-12-18T03:30:20.371Z,1018.28
2018-12-18T03:31:20.414Z,1018.25
2018-12-18T03:32:20.330Z,1018.27
2018-12-18T03:33:20.303Z,1018.30
2018-12-18T03:34:20.278Z,1018.27
2018-12-18T03:35:20.254Z,1018.28
2018-12-18T03:36:20.230Z,1018.25
2018-12-18T03:37:20.225Z,1018.28
2018-12-18T03:38:20.184Z,1018.28
2018-12-18T03:39:20.169Z,1018.28
2018-12-18T03:40:20.140Z,1018.25
2018-12-18T03:41:20.114Z,1018.27
2018-12-18T03:42:20.091Z,1018.22
2018-12-18T03:43:20.074Z,1018.23
2018-12-18T03:44:20.050Z,1018.22
2018-12-18T03:45:20.020Z,1018.22
2018-12-18T03:46:19.998Z,1018.17
2018-12-18T03:47:19.990Z,1018.22
2018-12-18T03:48:19.950Z,1018.15
2018-12-18T03:49:19.933Z,1018.17
2018-12-18T03:50:19.904Z,1018.14
2018-12-18T03:51:19.881Z,1018.16
2018-12-18T03:52:19.864Z,1018.18
2018-12-18T03:53:19.839Z,1018.19
2018-12-18T03:54:19.817Z,1018.18
2018-12-18T03:55:19.790Z,1018.19
2018-12-18T03:56:19.764Z,1018.14
2018-12-18T03:57:19.749Z,1018.14
2018-12-18T03:58:19.719Z,1018.14
2018-12-18T03:59:19.699Z,1018.10
2018-12-18T04:00:19.670Z,1018.14
2018-12-18T04:01:19.650Z,1018.10
2018-12-18T04:02:19.634Z,1018.12
2018-12-18T04:03:19.601Z,1018.13
2018-12-18T04:04:19.578Z,1018.13
2018-12-18T04:05:19.554Z,1018.17
2018-12-18T04:06:19.532Z,1018.14
2018-12-18T04:07:19.509Z,1018.18
2018-12-18T04:08:19.485Z,1018.13
2018-12-18T04:09:19.472Z,1018.16
2018-12-18T04:10:19.437Z,1018.18
2018-12-18T04:11:19.431Z,1018.17
2018-12-18T04:12:19.390Z,1018.19
2018-12-18T04:13:19.376Z,1018.16
2018-12-18T04:14:19.344Z,1018.18
2018-12-18T04:15:19.323Z,1018.19
2018-12-18T04:16:19.296Z,1018.17
2018-12-18T04:17:19.284Z,1018.18
2018-12-18T04:18:19.250Z,1018.17
2018-12-18T04:19:19.227Z,1018.13
2018-12-18T04:20:19.204Z,1018.18
2018-12-18T04:21:19.183Z,1018.17
2018-12-18T04:22:19.162Z,1018.21
2018-12-18T04:23:19.135Z,1018.18
2018-12-18T04:24:19.113Z,1018.16
2018-12-18T04:25:19.098Z,1018.13
2018-12-18T04:26:19.067Z,1018.18
2018-12-18T04:27:19.043Z,1018.16
2018-12-18T04:28:19.018Z,1018.14
2018-12-18T04:29:18.996Z,1018.16
2018-12-18T04:30:18.972Z,1018.18
2018-12-18T04:31:18.948Z,1018.13
2018-12-18T04:32:18.931Z,1018.11
2018-12-18T04:33:18.903Z,1018.12
2018-12-18T04:34:18.879Z,1018.09
2018-12-18T04:35:18.875Z,1018.14
2018-12-18T04:36:18.832Z,1018.09
2018-12-18T04:37:18.806Z,1018.07
2018-12-18T04:38:18.785Z,1018.09
2018-12-18T04:39:18.762Z,1018.10
2018-12-18T04:40:18.738Z,1018.11
2018-12-18T04:41:18.721Z,1018.16
2018-12-18T04:42:18.691Z,1018.14
2018-12-18T04:43:18.669Z,1018.14
2018-12-18T04:44:18.643Z,1018.13
2018-12-18T04:45:18.629Z,1018.17
2018-12-18T04:46:18.598Z,1018.13
2018-12-18T04:47:18.575Z,1018.21
2018-12-18T04:48:18.550Z,1018.20
2018-12-18T04:49:18.526Z,1018.14
2018-12-18T04:50:18.506Z,1018.19
2018-12-18T04:51:18.489Z,1018.20
2018-12-18T04:52:18.455Z,1018.18
2018-12-18T04:53:18.432Z,1018.26
2018-12-18T04:54:18.409Z,1018.19
2018-12-18T04:55:18.386Z,1018.28
2018-12-18T04:56:18.375Z,1018.26
2018-12-18T04:57:18.338Z,1018.24
2018-12-18T04:58:18.318Z,1018.24
2018-12-18T04:59:18.293Z,1018.23
2018-12-18T05:00:18.276Z,1018.25
2018-12-18T05:01:18.252Z,1018.29
2018-12-18T05:02:18.228Z,1018.29
2018-12-18T05:03:18.197Z,1018.29
2018-12-18T05:04:18.175Z,1018.31
2018-12-18T05:05:18.150Z,1018.26
2018-12-18T05:06:18.126Z,1018.32
2018-12-18T05:07:18.103Z,1018.29
2018-12-18T05:08:18.146Z,1018.24
2018-12-18T05:09:18.056Z,1018.26
2018-12-18T05:10:18.036Z,1018.34
2018-12-18T05:11:18.009Z,1018.28
2018-12-18T05:12:17.985Z,1018.30
2018-12-18T05:13:17.964Z,1018.29
2018-12-18T05:14:18.009Z,1018.29
2018-12-18T05:15:17.917Z,1018.23
2018-12-18T05:16:17.889Z,1018.27
2018-12-18T05:17:17.868Z,1018.31
2018-12-18T05:18:17.845Z,1018.26
2018-12-18T05:19:17.819Z,1018.28
2018-12-18T05:20:17.796Z,1018.29
2018-12-18T05:21:17.923Z,1018.34
2018-12-18T05:22:17.757Z,1018.34
2018-12-18T05:23:17.726Z,1018.28
2018-12-18T05:24:17.701Z,1018.30
2018-12-18T05:25:17.693Z,1018.29
2018-12-18T05:26:17.655Z,1018.33
2018-12-18T05:27:17.638Z,1018.35
2018-12-18T05:28:17.606Z,1018.30
2018-12-18T05:29:17.597Z,1018.27
2018-12-18T05:30:17.560Z,1018.26
2018-12-18T05:31:17.536Z,1018.25
2018-12-18T05:32:17.528Z,1018.25
2018-12-18T05:33:17.503Z,1018.26
2018-12-18T05:34:17.464Z,1018.22
2018-12-18T05:35:17.442Z,1018.21
2018-12-18T05:36:17.421Z,1018.23
2018-12-18T05:37:17.401Z,1018.26
2018-12-18T05:38:17.376Z,1018.20
2018-12-18T05:39:17.359Z,1018.22
2018-12-18T05:40:17.323Z,1018.20
2018-12-18T05:41:17.298Z,1018.24
2018-12-18T05:42:17.277Z,1018.23
2018-12-18T05:43:17.252Z,1018.19
2018-12-18T05:44:17.227Z,1018.25
2018-12-18T05:45:17.214Z,1018.23
2018-12-18T05:46:17.192Z,1018.26
2018-12-18T05:47:17.157Z,1018.26
2018-12-18T05:48:17.134Z,1018.25
2018-12-18T05:49:17.109Z,1018.28
2018-12-18T05:50:17.086Z,1018.29
2018-12-18T05:51:17.064Z,1018.31
2018-12-18T05:52:17.046Z,1018.29
2018-12-18T05:53:17.014Z,1018.31
2018-12-18T05:54:17.003Z,1018.28
2018-12-18T05:55:16.968Z,1018.30
2018-12-18T05:56:16.949Z,1018.26
2018-12-18T05:57:16.920Z,1018.24
2018-12-18T05:58:16.914Z,1018.27
2018-12-18T05:59:16.874Z,1018.29
2018-12-18T06:00:16.853Z,1018.28
2018-12-18T06:01:16.826Z,1018.28
2018-12-18T06:02:16.817Z,1018.26
2018-12-18T06:03:16.787Z,1018.30
2018-12-18T06:04:16.756Z,1018.25
2018-12-18T06:05:16.731Z,1018.33
2018-12-18T06:06:16.710Z,1018.37
2018-12-18T06:07:16.686Z,1018.32
2018-12-18T06:08:16.667Z,1018.33
2018-12-18T06:09:16.641Z,1018.35
2018-12-18T06:10:16.667Z,1018.35
2018-12-18T06:11:16.600Z,1018.38
2018-12-18T06:12:16.573Z,1018.34
2018-12-18T06:13:16.548Z,1018.37
2018-12-18T06:14:16.523Z,1018.38
2018-12-18T06:15:16.499Z,1018.39
2018-12-18T06:16:16.472Z,1018.42
2018-12-18T06:17:16.449Z,1018.42
2018-12-18T06:18:16.436Z,1018.43
2018-12-18T06:19:16.405Z,1018.46
2018-12-18T06:20:16.382Z,1018.43
2018-12-18T06:21:16.357Z,1018.45
2018-12-18T06:22:16.337Z,1018.43
2018-12-18T06:23:16.317Z,1018.42
2018-12-18T06:24:16.286Z,1018.47
2018-12-18T06:25:16.755Z,1018.45
2018-12-18T06:26:16.246Z,1018.37
2018-12-18T06:27:16.215Z,1018.43
2018-12-18T06:28:16.198Z,1018.44
2018-12-18T06:29:16.167Z,1018.42
2018-12-18T06:30:16.144Z,1018.42
2018-12-18T06:31:16.120Z,1018.44
2018-12-18T06:32:16.119Z,1018.48
2018-12-18T06:33:16.074Z,1018.44
2018-12-18T06:34:16.048Z,1018.38
2018-12-18T06:35:16.027Z,1018.40
2018-12-18T06:36:16.010Z,1018.37
2018-12-18T06:37:15.988Z,1018.38
2018-12-18T06:38:15.964Z,1018.38
2018-12-18T06:39:15.932Z,1018.44
2018-12-18T06:40:15.907Z,1018.42
2018-12-18T06:41:15.883Z,1018.42
2018-12-18T06:42:15.861Z,1018.35
2018-12-18T06:43:15.842Z,1018.39
2018-12-18T06:44:15.813Z,1018.38
2018-12-18T06:45:15.790Z,1018.39
2018-12-18T06:46:15.766Z,1018.36
2018-12-18T06:47:15.741Z,1018.35
2018-12-18T06:48:15.718Z,1018.39
2018-12-18T06:49:15.695Z,1018.34
2018-12-18T06:50:15.673Z,1018.36
2018-12-18T06:51:15.650Z,1018.35
2018-12-18T06:52:15.623Z,1018.33
2018-12-18T06:53:15.601Z,1018.35
2018-12-18T06:54:15.577Z,1018.38
2018-12-18T06:55:15.605Z,1018.38
2018-12-18T06:56:15.528Z,1018.45
2018-12-18T06:57:15.508Z,1018.45
2018-12-18T06:58:15.481Z,1018.47
2018-12-18T06:59:15.460Z,1018.47
2018-12-18T07:00:15.432Z,1018.47
2018-12-18T07:01:15.409Z,1018.43
2018-12-18T07:02:15.391Z,1018.42
2018-12-18T07:03:15.361Z,1018.50
2018-12-18T07:04:15.339Z,1018.53
2018-12-18T07:05:16.957Z,1018.54
2018-12-18T07:06:15.296Z,1018.55
2018-12-18T07:07:18.905Z,1018.54
2018-12-18T07:08:15.250Z,1018.54
2018-12-18T07:09:15.225Z,1018.53
2018-12-18T07:10:15.211Z,1018.53
2018-12-18T07:11:15.174Z,1018.54
2018-12-18T07:12:15.145Z,1018.54
2018-12-18T07:13:15.130Z,1018.56
2018-12-18T07:14:15.106Z,1018.54
2018-12-18T07:15:15.076Z,1018.54
2018-12-18T07:16:15.051Z,1018.55
2018-12-18T07:17:15.026Z,1018.51
2018-12-18T07:18:15.001Z,1018.55
2018-12-18T07:19:14.978Z,1018.48
2018-12-18T07:20:14.952Z,1018.53
2018-12-18T07:21:14.931Z,1018.52
2018-12-18T07:22:14.906Z,1018.51
2018-12-18T07:23:14.886Z,1018.55
2018-12-18T07:24:14.860Z,1018.50
2018-12-18T07:25:14.842Z,1018.55
2018-12-18T07:26:14.808Z,1018.53
2018-12-18T07:27:14.785Z,1018.51
2018-12-18T07:28:14.762Z,1018.55
2018-12-18T07:29:14.738Z,1018.48
2018-12-18T07:30:14.713Z,1018.51
2018-12-18T07:31:14.691Z,1018.50
2018-12-18T07:32:14.666Z,1018.50
2018-12-18T07:33:14.646Z,1018.51
2018-12-18T07:34:14.618Z,1018.51
2018-12-18T07:35:14.598Z,1018.55
2018-12-18T07:36:14.571Z,1018.53
2018-12-18T07:37:14.550Z,1018.52
2018-12-18T07:38:14.521Z,1018.55
2018-12-18T07:39:14.498Z,1018.56
2018-12-18T07:40:14.472Z,1018.48
2018-12-18T07:41:14.450Z,1018.49
2018-12-18T07:42:14.426Z,1018.49
2018-12-18T07:43:14.404Z,1018.52
2018-12-18T07:44:14.376Z,1018.52
2018-12-18T07:45:14.352Z,1018.53
2018-12-18T07:46:14.329Z,1018.56
2018-12-18T07:47:14.307Z,1018.52
2018-12-18T07:48:14.282Z,1018.52
2018-12-18T07:49:14.265Z,1018.51
2018-12-18T07:50:14.233Z,1018.51
2018-12-18T07:51:14.208Z,1018.47
2018-12-18T07:52:14.189Z,1018.46
2018-12-18T07:53:14.174Z,1018.43
2018-12-18T07:54:14.138Z,1018.43
2018-12-18T07:55:14.118Z,1018.34
2018-12-18T07:56:14.105Z,1018.31
2018-12-18T07:57:14.074Z,1018.29
2018-12-18T07:58:14.038Z,1018.24
2018-12-18T07:59:14.016Z,1018.17
2018-12-18T08:00:14.001Z,1018.20
2018-12-18T08:01:13.966Z,1018.14
2018-12-18T08:02:13.944Z,1018.10
2018-12-18T08:03:13.929Z,1018.10
2018-12-18T08:04:13.894Z,1018.05
2018-12-18T08:05:13.867Z,1017.99
2018-12-18T08:06:13.843Z,1017.96
2018-12-18T08:07:13.822Z,1017.95
2018-12-18T08:08:13.796Z,1017.95
2018-12-18T08:09:13.772Z,1017.91
2018-12-18T08:10:13.748Z,1017.92
2018-12-18T08:11:13.723Z,1017.96
2018-12-18T08:12:13.699Z,1017.89
2018-12-18T08:13:13.673Z,1017.97
2018-12-18T08:14:13.658Z,1017.93
2018-12-18T08:15:13.627Z,1017.93
2018-12-18T08:16:13.602Z,1017.96
2018-12-18T08:17:13.577Z,1017.90
2018-12-18T08:18:13.558Z,1017.89
2018-12-18T08:19:13.528Z,1017.89
2018-12-18T08:20:13.501Z,1017.89
2018-12-18T08:21:13.477Z,1017.89
2018-12-18T08:22:13.470Z,1017.92
2018-12-18T08:23:13.439Z,1017.94
2018-12-18T08:24:13.406Z,1017.86
2018-12-18T08:25:13.378Z,1017.80
2018-12-18T08:26:13.370Z,1017.80
2018-12-18T08:27:13.330Z,1017.78
2018-12-18T08:28:13.304Z,1017.78
2018-12-18T08:29:13.296Z,1017.75
2018-12-18T08:30:13.270Z,1017.85
2018-12-18T08:31:13.231Z,1017.82
2018-12-18T08:32:13.205Z,1017.80
2018-12-18T08:33:13.182Z,1017.80
2018-12-18T08:34:13.168Z,1017.78
2018-12-18T08:35:13.135Z,1017.83
2018-12-18T08:36:13.109Z,1017.79
2018-12-18T08:37:13.082Z,1017.80
2018-12-18T08:38:13.059Z,1017.76
2018-12-18T08:39:13.038Z,1017.79
2018-12-18T08:40:13.015Z,1017.75
2018-12-18T08:41:12.985Z,1017.75
2018-12-18T08:42:12.961Z,1017.74
2018-12-18T08:43:12.938Z,1017.76
2018-12-18T08:44:12.910Z,1017.79
2018-12-18T08:45:12.886Z,1017.77
2018-12-18T08:46:12.862Z,1017.72
2018-12-18T08:47:12.836Z,1017.75
2018-12-18T08:48:12.812Z,1017.78
2018-12-18T08:49:12.895Z,1017.74
2018-12-18T08:50:12.762Z,1017.74
2018-12-18T08:51:12.739Z,1017.72
2018-12-18T08:52:12.713Z,1017.74
2018-12-18T08:53:12.695Z,1017.75
2018-12-18T08:54:12.663Z,1017.75
2018-12-18T08:55:12.640Z,1017.76
2018-12-18T08:56:12.613Z,1017.74
2018-12-18T08:57:12.588Z,1017.74
2018-12-18T08:58:12.570Z,1017.72
2018-12-18T08:59:12.543Z,1017.75
2018-12-18T09:00:12.526Z,1017.70
2018-12-18T09:01:12.500Z,1017.72
2018-12-18T09:02:12.476Z,1017.80
2018-12-18T09:03:12.445Z,1017.81
2018-12-18T09:04:12.416Z,1017.82
2018-12-18T09:05:12.392Z,1017.76
2018-12-18T09:06:12.367Z,1017.76
2018-12-18T09:07:12.346Z,1017.74
2018-12-18T09:08:12.325Z,1017.78
2018-12-18T09:09:12.301Z,1017.80
2018-12-18T09:10:12.271Z,1017.75
2018-12-18T09:11:12.253Z,1017.78
2018-12-18T09:12:12.227Z,1017.73
2018-12-18T09:13:12.193Z,1017.71
2018-12-18T09:14:12.171Z,1017.70
2018-12-18T09:15:12.145Z,1017.74
2018-12-18T09:16:12.119Z,1017.71
2018-12-18T09:17:12.100Z,1017.66
2018-12-18T09:18:12.075Z,1017.67
2018-12-18T09:19:12.045Z,1017.63
2018-12-18T09:20:12.021Z,1017.59
2018-12-18T09:21:12.000Z,1017.62
2018-12-18T09:22:11.980Z,1017.58
2018-12-18T09:23:11.954Z,1017.58
2018-12-18T09:24:11.928Z,1017.55
2018-12-18T09:25:11.900Z,1017.57
2018-12-18T09:26:11.874Z,1017.58
2018-12-18T09:27:11.851Z,1017.54
2018-12-18T09:28:11.823Z,1017.53
2018-12-18T09:29:11.801Z,1017.52
2018-12-18T09:30:11.775Z,1017.51
2018-12-18T09:31:11.752Z,1017.47
2018-12-18T09:32:11.726Z,1017.42
2018-12-18T09:33:11.701Z,1017.37
2018-12-18T09:34:11.678Z,1017.39
2018-12-18T09:35:11.674Z,1017.37
2018-12-18T09:36:11.637Z,1017.41
2018-12-18T09:37:11.618Z,1017.38
2018-12-18T09:38:11.585Z,1017.37
2018-12-18T09:39:11.560Z,1017.35
2018-12-18T09:40:11.528Z,1017.29
2018-12-18T09:41:11.512Z,1017.31
2018-12-18T09:42:11.479Z,1017.26
2018-12-18T09:43:11.460Z,1017.29
2018-12-18T09:44:11.434Z,1017.27
2018-12-18T09:45:11.420Z,1017.22
2018-12-18T09:46:11.404Z,1017.20
2018-12-18T09:47:11.366Z,1017.24
2018-12-18T09:48:11.357Z,1017.24
2018-12-18T09:49:11.310Z,1017.23
2018-12-18T09:50:11.286Z,1017.23
2018-12-18T09:51:11.262Z,1017.23
2018-12-18T09:52:11.246Z,1017.24
2018-12-18T09:53:11.216Z,1017.25
2018-12-18T09:54:11.190Z,1017.28
2018-12-18T09:55:11.163Z,1017.25
2018-12-18T09:56:11.140Z,1017.28
2018-12-18T09:57:11.123Z,1017.27
2018-12-18T09:58:11.090Z,1017.28
2018-12-18T09:59:11.085Z,1017.26
2018-12-18T10:00:11.042Z,1017.28
2018-12-18T10:01:11.019Z,1017.27
2018-12-18T10:02:10.996Z,1017.27
2018-12-18T10:03:10.978Z,1017.26
2018-12-18T10:04:10.944Z,1017.25
2018-12-18T10:05:10.921Z,1017.19
2018-12-18T10:06:10.898Z,1017.18
2018-12-18T10:07:10.875Z,1017.15
2018-12-18T10:08:10.848Z,1017.13
2018-12-18T10:09:10.827Z,1017.10
2018-12-18T10:10:10.815Z,1017.02
2018-12-18T10:11:10.792Z,1017.05
2018-12-18T10:12:10.754Z,1016.96
2018-12-18T10:13:10.730Z,1017.01
2018-12-18T10:14:10.718Z,1016.99
2018-12-18T10:15:10.682Z,1016.96
2018-12-18T10:16:10.661Z,1016.93
2018-12-18T10:17:10.632Z,1016.91
2018-12-18T10:18:10.612Z,1016.92
2018-12-18T10:19:10.585Z,1016.93
2018-12-18T10:20:10.566Z,1016.89
2018-12-18T10:21:10.549Z,1016.82
2018-12-18T10:22:10.521Z,1016.88
2018-12-18T10:23:10.508Z,1016.86
2018-12-18T10:24:10.467Z,1016.82
2018-12-18T10:25:10.455Z,1016.82
2018-12-18T10:26:10.427Z,1016.82
2018-12-18T10:27:10.394Z,1016.83
2018-12-18T10:28:10.377Z,1016.81
2018-12-18T10:29:10.354Z,1016.85
2018-12-18T10:30:10.936Z,1016.80
2018-12-18T10:31:10.303Z,1016.85
2018-12-18T10:32:10.283Z,1016.85
2018-12-18T10:33:10.248Z,1016.86
2018-12-18T10:34:10.226Z,1016.83
2018-12-18T10:35:10.203Z,1016.78
2018-12-18T10:36:10.178Z,1016.78
2018-12-18T10:37:10.166Z,1016.72
2018-12-18T10:38:10.130Z,1016.71
2018-12-18T10:39:10.108Z,1016.74
2018-12-18T10:40:10.084Z,1016.73
2018-12-18T10:41:10.085Z,1016.67
2018-12-18T10:42:10.048Z,1016.73
2018-12-18T10:43:10.016Z,1016.73
2018-12-18T10:44:09.995Z,1016.74
2018-12-18T10:45:13.755Z,1016.71
2018-12-18T10:46:09.960Z,1016.72
2018-12-18T10:47:09.931Z,1016.71
2018-12-18T10:48:09.903Z,1016.73
2018-12-18T10:49:09.888Z,1016.73
2018-12-18T10:50:09.857Z,1016.74
2018-12-18T10:51:09.851Z,1016.73
2018-12-18T10:52:09.809Z,1016.67
2018-12-18T10:53:09.787Z,1016.66
2018-12-18T10:54:09.766Z,1016.64
2018-12-18T10:55:09.745Z,1016.63
2018-12-18T10:56:09.720Z,1016.62
2018-12-18T10:57:09.698Z,1016.58
2018-12-18T10:58:09.689Z,1016.61
2018-12-18T10:59:09.671Z,1016.53
2018-12-18T11:00:09.639Z,1016.47
2018-12-18T11:01:09.611Z,1016.50
2018-12-18T11:02:09.588Z,1016.56
2018-12-18T11:03:09.567Z,1016.51
2018-12-18T11:04:09.549Z,1016.51
2018-12-18T11:05:09.522Z,1016.48
2018-12-18T11:06:10.235Z,1016.50
2018-12-18T11:07:09.480Z,1016.46
2018-12-18T11:08:09.455Z,1016.43
2018-12-18T11:09:09.446Z,1016.48
2018-12-18T11:10:09.416Z,1016.44
2018-12-18T11:11:09.391Z,1016.45
2018-12-18T11:12:09.373Z,1016.37
2018-12-18T11:13:09.350Z,1016.38
2018-12-18T11:14:09.352Z,1016.38
2018-12-18T11:15:09.453Z,1016.33
2018-12-18T11:16:09.280Z,1016.29
2018-12-18T11:17:09.257Z,1016.30
2018-12-18T11:18:09.239Z,1016.23
2018-12-18T11:19:09.231Z,1016.21
2018-12-18T11:20:09.214Z,1016.23
2018-12-18T11:21:09.173Z,1016.20
2018-12-18T11:22:09.151Z,1016.15
2018-12-18T11:23:09.129Z,1016.17
2018-12-18T11:24:09.104Z,1016.11
2018-12-18T11:25:09.098Z,1016.09
2018-12-18T11:26:09.060Z,1016.04
2018-12-18T11:27:09.039Z,1016.06
2018-12-18T11:28:09.015Z,1015.98
2018-12-18T11:29:09.002Z,1015.97
2018-12-18T11:30:08.985Z,1015.95
2018-12-18T11:31:08.963Z,1015.93
2018-12-18T11:32:09.574Z,1015.86
2018-12-18T11:33:08.910Z,1015.85
2018-12-18T11:34:08.887Z,1015.81
2018-12-18T11:35:08.861Z,1015.82
2018-12-18T11:36:08.839Z,1015.80
2018-12-18T11:37:08.826Z,1015.76
2018-12-18T11:38:08.797Z,1015.76
2018-12-18T11:39:08.774Z,1015.73
2018-12-18T11:40:08.752Z,1015.68
2018-12-18T11:41:08.728Z,1015.69
2018-12-18T11:42:08.705Z,1015.61
2018-12-18T11:43:08.686Z,1015.61
2018-12-18T11:44:08.661Z,1015.58
2018-12-18T11:45:08.640Z,1015.58
2018-12-18T11:46:08.618Z,1015.60
2018-12-18T11:47:08.597Z,1015.57
2018-12-18T11:48:08.572Z,1015.59
2018-12-18T11:49:08.558Z,1015.56
2018-12-18T11:50:08.585Z,1015.59
2018-12-18T11:51:08.508Z,1015.50
2018-12-18T11:52:08.485Z,1015.53
2018-12-18T11:53:08.463Z,1015.52
2018-12-18T11:54:08.441Z,1015.52
2018-12-18T11:55:08.421Z,1015.48
2018-12-18T11:56:08.498Z,1015.50
2018-12-18T11:57:08.430Z,1015.44
2018-12-18T11:58:08.353Z,1015.46
2018-12-18T11:59:08.332Z,1015.44
2018-12-18T12:00:08.310Z,1015.41
2018-12-18T12:01:08.289Z,1015.40
2018-12-18T12:02:08.271Z,1015.42
2018-12-18T12:03:08.245Z,1015.42
2018-12-18T12:04:08.221Z,1015.32
2018-12-18T12:05:08.198Z,1015.33